sensor_id;sensor_type;location;lat;lon;timestamp;pressure;altitude;pressure_sealevel;temperature;humidity
28935;BME280;16044;52.726;-2.108;2023-04-15T00:01:02;100151.78;;;4.23;100.00
28935;BME280;16044;52.726;-2.108;2023-04-15T00:03:30;100154.91;;;4.19;100.00
28935;BME280;16044;52.726;-2.108;2023-04-15T00:05:57;100161.41;;;4.16;100.00
28935;BME280;16044;52.726;-2.108;2023-04-15T00:08:25;100159.84;;;4.14;100.00
28935;BME280;16044;52.726;-2.108;2023-04-15T00:10:52;100160.16;;;4.10;100.00
28935;BME280;16044;52.726;-2.108;2023-04-15T00:13:19;100169.47;;;4.06;100.00
28935;BME280;16044;52.726;-2.108;2023-04-15T00:15:47;100166.22;;;4.03;100.00
28935;BME280;16044;52.726;-2.108;2023-04-15T00:18:14;100174.41;;;4.01;100.00
28935;BME280;16044;52.726;-2.108;2023-04-15T00:20:41;100176.25;;;4.01;100.00
28935;BME280;16044;52.726;-2.108;2023-04-15T00:23:08;100176.25;;;4.01;100.00
28935;BME280;16044;52.726;-2.108;2023-04-15T00:25:35;100176.94;;;4.03;100.00
28935;BME280;16044;52.726;-2.108;2023-04-15T00:28:02;100186.81;;;4.02;100.00
28935;BME280;16044;52.726;-2.108;2023-04-15T00:30:29;100193.19;;;4.01;100.00
28935;BME280;16044;52.726;-2.108;2023-04-15T00:32:57;100195.16;;;3.99;100.00
28935;BME280;16044;52.726;-2.108;2023-04-15T00:35:24;100193.31;;;4.00;100.00
28935;BME280;16044;52.726;-2.108;2023-04-15T00:37:51;100190.78;;;3.98;100.00
28935;BME280;16044;52.726;-2.108;2023-04-15T00:40:20;100193.44;;;3.98;100.00
28935;BME280;16044;52.726;-2.108;2023-04-15T00:42:47;100191.91;;;3.96;100.00
28935;BME280;16044;52.726;-2.108;2023-04-15T00:45:14;100214.19;;;3.96;100.00
28935;BME280;16044;52.726;-2.108;2023-04-15T00:47:42;100219.28;;;3.99;100.00
28935;BME280;16044;52.726;-2.108;2023-04-15T00:50:11;100215.03;;;3.97;100.00
28935;BME280;16044;52.726;-2.108;2023-04-15T00:52:39;100220.41;;;3.97;100.00
28935;BME280;16044;52.726;-2.108;2023-04-15T00:55:07;100232.69;;;3.99;100.00
28935;BME280;16044;52.726;-2.108;2023-04-15T00:57:35;100230.03;;;3.99;100.00
28935;BME280;16044;52.726;-2.108;2023-04-15T01:00:03;100244.28;;;4.00;100.00
28935;BME280;16044;52.726;-2.108;2023-04-15T01:02:34;100238.47;;;3.95;100.00
28935;BME280;16044;52.726;-2.108;2023-04-15T01:05:02;100246.50;;;4.04;100.00
28935;BME280;16044;52.726;-2.108;2023-04-15T01:07:30;100251.22;;;4.12;100.00
28935;BME280;16044;52.726;-2.108;2023-04-15T01:09:57;100260.50;;;4.18;100.00
28935;BME280;16044;52.726;-2.108;2023-04-15T01:12:26;100264.44;;;4.23;100.00
28935;BME280;16044;52.726;-2.108;2023-04-15T01:14:54;100265.88;;;4.27;100.00
28935;BME280;16044;52.726;-2.108;2023-04-15T01:17:23;100262.75;;;4.32;100.00
28935;BME280;16044;52.726;-2.108;2023-04-15T01:19:50;100264.16;;;4.36;100.00
28935;BME280;16044;52.726;-2.108;2023-04-15T01:22:18;100265.31;;;4.43;100.00
28935;BME280;16044;52.726;-2.108;2023-04-15T01:24:54;100275.47;;;4.49;100.00
28935;BME280;16044;52.726;-2.108;2023-04-15T01:27:28;100279.28;;;4.57;100.00
28935;BME280;16044;52.726;-2.108;2023-04-15T01:29:55;100282.22;;;4.54;100.00
28935;BME280;16044;52.726;-2.108;2023-04-15T01:32:23;100284.75;;;4.65;100.00
28935;BME280;16044;52.726;-2.108;2023-04-15T01:34:50;100287.31;;;4.66;100.00
28935;BME280;16044;52.726;-2.108;2023-04-15T01:37:17;100287.03;;;4.69;100.00
28935;BME280;16044;52.726;-2.108;2023-04-15T01:39:44;100282.94;;;4.75;100.00
28935;BME280;16044;52.726;-2.108;2023-04-15T01:42:12;100291.09;;;4.83;100.00
28935;BME280;16044;52.726;-2.108;2023-04-15T01:44:38;100278.81;;;4.81;100.00
28935;BME280;16044;52.726;-2.108;2023-04-15T01:47:05;100280.22;;;4.85;100.00
28935;BME280;16044;52.726;-2.108;2023-04-15T01:49:33;100288.69;;;4.90;100.00
28935;BME280;16044;52.726;-2.108;2023-04-15T01:52:00;100287.53;;;4.93;100.00
28935;BME280;16044;52.726;-2.108;2023-04-15T01:54:27;100293.91;;;5.01;100.00
28935;BME280;16044;52.726;-2.108;2023-04-15T01:56:54;100308.75;;;4.96;100.00
28935;BME280;16044;52.726;-2.108;2023-04-15T01:59:22;100305.75;;;4.99;100.00
28935;BME280;16044;52.726;-2.108;2023-04-15T02:01:49;100301.94;;;5.01;100.00
28935;BME280;16044;52.726;-2.108;2023-04-15T02:04:16;100306.03;;;5.05;100.00
28935;BME280;16044;52.726;-2.108;2023-04-15T02:06:43;100307.56;;;5.08;100.00
28935;BME280;16044;52.726;-2.108;2023-04-15T02:09:11;100310.41;;;5.06;100.00
28935;BME280;16044;52.726;-2.108;2023-04-15T02:11:38;100319.88;;;5.11;100.00
28935;BME280;16044;52.726;-2.108;2023-04-15T02:14:05;100322.41;;;5.12;100.00
28935;BME280;16044;52.726;-2.108;2023-04-15T02:16:32;100329.50;;;5.13;100.00
28935;BME280;16044;52.726;-2.108;2023-04-15T02:19:00;100324.81;;;5.15;100.00
28935;BME280;16044;52.726;-2.108;2023-04-15T02:21:28;100332.28;;;5.21;100.00
28935;BME280;16044;52.726;-2.108;2023-04-15T02:23:55;100331.44;;;5.21;100.00
28935;BME280;16044;52.726;-2.108;2023-04-15T02:26:22;100334.13;;;5.21;100.00
28935;BME280;16044;52.726;-2.108;2023-04-15T02:28:51;100336.69;;;5.22;100.00
28935;BME280;16044;52.726;-2.108;2023-04-15T02:31:18;100337.38;;;5.24;100.00
28935;BME280;16044;52.726;-2.108;2023-04-15T02:33:45;100337.38;;;5.24;100.00
28935;BME280;16044;52.726;-2.108;2023-04-15T02:36:12;100345.72;;;5.21;100.00
28935;BME280;16044;52.726;-2.108;2023-04-15T02:38:39;100347.00;;;5.17;100.00
28935;BME280;16044;52.726;-2.108;2023-04-15T02:41:11;100348.28;;;5.13;100.00
28935;BME280;16044;52.726;-2.108;2023-04-15T02:43:38;100348.00;;;5.06;100.00
28935;BME280;16044;52.726;-2.108;2023-04-15T02:46:05;100338.69;;;5.01;100.00
28935;BME280;16044;52.726;-2.108;2023-04-15T02:48:32;100351.72;;;4.96;100.00
28935;BME280;16044;52.726;-2.108;2023-04-15T02:51:19;100350.59;;;4.88;100.00
28935;BME280;16044;52.726;-2.108;2023-04-15T02:53:49;100353.00;;;4.82;100.00
28935;BME280;16044;52.726;-2.108;2023-04-15T02:56:16;100365.03;;;4.78;100.00
28935;BME280;16044;52.726;-2.108;2023-04-15T02:58:44;100363.63;;;4.74;100.00
28935;BME280;16044;52.726;-2.108;2023-04-15T03:01:12;100369.56;;;4.67;100.00
28935;BME280;16044;52.726;-2.108;2023-04-15T03:03:39;100372.66;;;4.63;100.00
28935;BME280;16044;52.726;-2.108;2023-04-15T03:06:06;100372.81;;;4.61;100.00
28935;BME280;16044;52.726;-2.108;2023-04-15T03:08:34;100373.66;;;4.62;100.00
28935;BME280;16044;52.726;-2.108;2023-04-15T03:11:02;100377.44;;;4.59;100.00
28935;BME280;16044;52.726;-2.108;2023-04-15T03:13:29;100378.03;;;4.63;100.00
28935;BME280;16044;52.726;-2.108;2023-04-15T03:15:57;100388.19;;;4.59;100.00
28935;BME280;16044;52.726;-2.108;2023-04-15T03:18:24;100384.78;;;4.57;100.00
28935;BME280;16044;52.726;-2.108;2023-04-15T03:20:51;100400.50;;;4.52;100.00
28935;BME280;16044;52.726;-2.108;2023-04-15T03:23:18;100404.47;;;4.48;100.00
28935;BME280;16044;52.726;-2.108;2023-04-15T03:25:45;100410.22;;;4.43;100.00
28935;BME280;16044;52.726;-2.108;2023-04-15T03:28:12;100419.53;;;4.39;100.00
28935;BME280;16044;52.726;-2.108;2023-04-15T03:30:39;100421.78;;;4.34;100.00
28935;BME280;16044;52.726;-2.108;2023-04-15T03:33:06;100420.09;;;4.33;100.00
28935;BME280;16044;52.726;-2.108;2023-04-15T03:35:34;100432.81;;;4.31;100.00
28935;BME280;16044;52.726;-2.108;2023-04-15T03:38:01;100429.25;;;4.30;100.00
28935;BME280;16044;52.726;-2.108;2023-04-15T03:40:27;100439.16;;;4.30;100.00
28935;BME280;16044;52.726;-2.108;2023-04-15T03:42:54;100436.03;;;4.35;100.00
28935;BME280;16044;52.726;-2.108;2023-04-15T03:45:22;100441.16;;;4.38;100.00
28935;BME280;16044;52.726;-2.108;2023-04-15T03:47:49;100444.97;;;4.45;100.00
28935;BME280;16044;52.726;-2.108;2023-04-15T03:50:16;100447.22;;;4.49;100.00
28935;BME280;16044;52.726;-2.108;2023-04-15T03:52:43;100448.09;;;4.50;100.00
28935;BME280;16044;52.726;-2.108;2023-04-15T03:55:11;100459.94;;;4.47;100.00
28935;BME280;16044;52.726;-2.108;2023-04-15T03:57:38;100469.41;;;4.52;100.00
28935;BME280;16044;52.726;-2.108;2023-04-15T04:00:06;100471.84;;;4.55;100.00
28935;BME280;16044;52.726;-2.108;2023-04-15T04:02:35;100462.66;;;4.57;100.00
28935;BME280;16044;52.726;-2.108;2023-04-15T04:05:02;100464.34;;;4.58;100.00
28935;BME280;16044;52.726;-2.108;2023-04-15T04:07:30;100468.72;;;4.59;100.00
28935;BME280;16044;52.726;-2.108;2023-04-15T04:09:57;100465.19;;;4.59;100.00
28935;BME280;16044;52.726;-2.108;2023-04-15T04:12:24;100472.41;;;4.58;100.00
28935;BME280;16044;52.726;-2.108;2023-04-15T04:14:51;100473.25;;;4.59;100.00
28935;BME280;16044;52.726;-2.108;2023-04-15T04:17:19;100480.91;;;4.63;100.00
28935;BME280;16044;52.726;-2.108;2023-04-15T04:19:46;100485.69;;;4.60;100.00
28935;BME280;16044;52.726;-2.108;2023-04-15T04:22:13;100483.16;;;4.58;100.00
28935;BME280;16044;52.726;-2.108;2023-04-15T04:24:40;100488.78;;;4.65;100.00
28935;BME280;16044;52.726;-2.108;2023-04-15T04:27:06;100492.75;;;4.61;100.00
28935;BME280;16044;52.726;-2.108;2023-04-15T04:29:33;100486.81;;;4.57;100.00
28935;BME280;16044;52.726;-2.108;2023-04-15T04:32:00;100496.69;;;4.57;100.00
28935;BME280;16044;52.726;-2.108;2023-04-15T04:34:27;100498.94;;;4.52;100.00
28935;BME280;16044;52.726;-2.108;2023-04-15T04:36:54;100501.59;;;4.42;100.00
28935;BME280;16044;52.726;-2.108;2023-04-15T04:39:21;100505.69;;;4.36;100.00
28935;BME280;16044;52.726;-2.108;2023-04-15T04:41:49;100506.22;;;4.30;100.00
28935;BME280;16044;52.726;-2.108;2023-04-15T04:44:17;100518.63;;;4.21;100.00
28935;BME280;16044;52.726;-2.108;2023-04-15T04:46:45;100518.44;;;4.13;100.00
28935;BME280;16044;52.726;-2.108;2023-04-15T04:49:11;100522.66;;;4.06;100.00
28935;BME280;16044;52.726;-2.108;2023-04-15T04:51:38;100526.00;;;3.98;100.00
28935;BME280;16044;52.726;-2.108;2023-04-15T04:54:05;100525.69;;;3.92;100.00
28935;BME280;16044;52.726;-2.108;2023-04-15T04:56:33;100524.41;;;3.86;100.00
28935;BME280;16044;52.726;-2.108;2023-04-15T04:59:00;100534.78;;;3.79;100.00
28935;BME280;16044;52.726;-2.108;2023-04-15T05:01:27;100532.63;;;3.73;100.00
28935;BME280;16044;52.726;-2.108;2023-04-15T05:03:54;100537.53;;;3.68;100.00
28935;BME280;16044;52.726;-2.108;2023-04-15T05:06:22;100539.50;;;3.66;100.00
28935;BME280;16044;52.726;-2.108;2023-04-15T05:08:49;100552.53;;;3.70;100.00
28935;BME280;16044;52.726;-2.108;2023-04-15T05:11:16;100554.94;;;3.74;100.00
28935;BME280;16044;52.726;-2.108;2023-04-15T05:13:43;100552.72;;;3.79;100.00
28935;BME280;16044;52.726;-2.108;2023-04-15T05:16:10;100560.47;;;3.82;100.00
28935;BME280;16044;52.726;-2.108;2023-04-15T05:18:37;100570.41;;;3.91;100.00
28935;BME280;16044;52.726;-2.108;2023-04-15T05:21:04;100572.38;;;3.89;100.00
28935;BME280;16044;52.726;-2.108;2023-04-15T05:23:32;100584.53;;;3.93;100.00
28935;BME280;16044;52.726;-2.108;2023-04-15T05:25:59;100587.38;;;3.92;100.00
28935;BME280;16044;52.726;-2.108;2023-04-15T05:28:26;100599.78;;;3.93;100.00
28935;BME280;16044;52.726;-2.108;2023-04-15T05:30:53;100603.31;;;3.93;100.00
28935;BME280;16044;52.726;-2.108;2023-04-15T05:33:21;100605.75;;;3.96;100.00
28935;BME280;16044;52.726;-2.108;2023-04-15T05:35:48;100614.25;;;4.01;100.00
28935;BME280;16044;52.726;-2.108;2023-04-15T05:38:16;100615.09;;;4.02;100.00
28935;BME280;16044;52.726;-2.108;2023-04-15T05:40:42;100618.91;;;3.99;100.00
28935;BME280;16044;52.726;-2.108;2023-04-15T05:43:09;100626.22;;;3.97;100.00
28935;BME280;16044;52.726;-2.108;2023-04-15T05:45:37;100636.41;;;4.03;100.00
28935;BME280;16044;52.726;-2.108;2023-04-15T05:48:04;100640.78;;;4.04;100.00
28935;BME280;16044;52.726;-2.108;2023-04-15T05:50:31;100640.78;;;4.04;100.00
28935;BME280;16044;52.726;-2.108;2023-04-15T05:52:58;100646.91;;;4.06;100.00
28935;BME280;16044;52.726;-2.108;2023-04-15T05:55:25;100647.28;;;4.02;100.00
28935;BME280;16044;52.726;-2.108;2023-04-15T05:57:52;100660.31;;;4.06;100.00
28935;BME280;16044;52.726;-2.108;2023-04-15T06:00:19;100658.72;;;4.04;100.00
28935;BME280;16044;52.726;-2.108;2023-04-15T06:02:47;100665.47;;;3.98;100.00
28935;BME280;16044;52.726;-2.108;2023-04-15T06:05:14;100679.47;;;4.02;100.00
28935;BME280;16044;52.726;-2.108;2023-04-15T06:07:41;100685.41;;;4.05;100.00
28935;BME280;16044;52.726;-2.108;2023-04-15T06:10:11;100688.81;;;4.07;100.00
28935;BME280;16044;52.726;-2.108;2023-04-15T06:12:39;100696.03;;;4.07;100.00
28935;BME280;16044;52.726;-2.108;2023-04-15T06:15:06;100699.91;;;4.14;100.00
28935;BME280;16044;52.726;-2.108;2023-04-15T06:17:36;100702.72;;;4.13;100.00
28935;BME280;16044;52.726;-2.108;2023-04-15T06:20:03;100708.78;;;4.15;100.00
28935;BME280;16044;52.726;-2.108;2023-04-15T06:22:30;100720.25;;;4.17;100.00
28935;BME280;16044;52.726;-2.108;2023-04-15T06:24:57;100734.13;;;4.22;100.00
28935;BME280;16044;52.726;-2.108;2023-04-15T06:27:24;100730.19;;;4.26;100.00
28935;BME280;16044;52.726;-2.108;2023-04-15T06:29:51;100729.41;;;4.35;100.00
28935;BME280;16044;52.726;-2.108;2023-04-15T06:32:18;100741.06;;;4.45;100.00
28935;BME280;16044;52.726;-2.108;2023-04-15T06:34:45;100741.59;;;4.39;100.00
28935;BME280;16044;52.726;-2.108;2023-04-15T06:37:12;100742.91;;;4.45;100.00
28935;BME280;16044;52.726;-2.108;2023-04-15T06:39:42;100748.75;;;4.50;100.00
28935;BME280;16044;52.726;-2.108;2023-04-15T06:42:10;100748.59;;;4.52;100.00
28935;BME280;16044;52.726;-2.108;2023-04-15T06:44:38;100747.38;;;4.56;100.00
28935;BME280;16044;52.726;-2.108;2023-04-15T06:47:05;100753.63;;;4.66;100.00
28935;BME280;16044;52.726;-2.108;2023-04-15T06:49:32;100762.53;;;4.66;100.00
28935;BME280;16044;52.726;-2.108;2023-04-15T06:51:59;100762.41;;;4.68;100.00
28935;BME280;16044;52.726;-2.108;2023-04-15T06:54:27;100765.09;;;4.68;100.00
28935;BME280;16044;52.726;-2.108;2023-04-15T06:56:54;100762.88;;;4.73;100.00
28935;BME280;16044;52.726;-2.108;2023-04-15T06:59:21;100766.31;;;4.85;100.00
28935;BME280;16044;52.726;-2.108;2023-04-15T07:01:48;100765.66;;;4.93;100.00
28935;BME280;16044;52.726;-2.108;2023-04-15T07:04:15;100768.66;;;4.99;100.00
28935;BME280;16044;52.726;-2.108;2023-04-15T07:06:42;100770.22;;;5.02;100.00
28935;BME280;16044;52.726;-2.108;2023-04-15T07:09:10;100777.03;;;5.06;100.00
28935;BME280;16044;52.726;-2.108;2023-04-15T07:11:37;100777.75;;;5.08;100.00
28935;BME280;16044;52.726;-2.108;2023-04-15T07:14:04;100802.22;;;5.05;100.00
28935;BME280;16044;52.726;-2.108;2023-04-15T07:16:31;100810.44;;;5.13;100.00
28935;BME280;16044;52.726;-2.108;2023-04-15T07:18:58;100817.78;;;5.11;100.00
28935;BME280;16044;52.726;-2.108;2023-04-15T07:21:26;100820.53;;;5.21;100.00
28935;BME280;16044;52.726;-2.108;2023-04-15T07:23:53;100808.81;;;5.22;100.00
28935;BME280;16044;52.726;-2.108;2023-04-15T07:26:20;100817.16;;;5.28;100.00
28935;BME280;16044;52.726;-2.108;2023-04-15T07:28:48;100819.50;;;5.43;100.00
28935;BME280;16044;52.726;-2.108;2023-04-15T07:31:15;100823.63;;;5.47;100.00
28935;BME280;16044;52.726;-2.108;2023-04-15T07:33:43;100831.84;;;5.55;100.00
28935;BME280;16044;52.726;-2.108;2023-04-15T07:36:10;100834.53;;;5.55;100.00
28935;BME280;16044;52.726;-2.108;2023-04-15T07:38:37;100838.38;;;5.62;100.00
28935;BME280;16044;52.726;-2.108;2023-04-15T07:41:05;100846.19;;;5.65;100.00
28935;BME280;16044;52.726;-2.108;2023-04-15T07:43:32;100846.78;;;5.69;100.00
28935;BME280;16044;52.726;-2.108;2023-04-15T07:45:59;100855.97;;;5.76;100.00
28935;BME280;16044;52.726;-2.108;2023-04-15T07:48:26;100865.34;;;5.82;100.00
28935;BME280;16044;52.726;-2.108;2023-04-15T07:50:53;100863.09;;;5.87;100.00
28935;BME280;16044;52.726;-2.108;2023-04-15T07:53:20;100866.78;;;5.86;100.00
28935;BME280;16044;52.726;-2.108;2023-04-15T07:55:46;100872.66;;;6.01;100.00
28935;BME280;16044;52.726;-2.108;2023-04-15T07:58:13;100868.28;;;6.10;100.00
28935;BME280;16044;52.726;-2.108;2023-04-15T08:00:41;100872.59;;;6.22;100.00
28935;BME280;16044;52.726;-2.108;2023-04-15T08:03:08;100872.28;;;6.25;100.00
28935;BME280;16044;52.726;-2.108;2023-04-15T08:05:35;100877.69;;;6.44;100.00
28935;BME280;16044;52.726;-2.108;2023-04-15T08:08:02;100880.69;;;6.51;100.00
28935;BME280;16044;52.726;-2.108;2023-04-15T08:10:29;100896.44;;;6.66;100.00
28935;BME280;16044;52.726;-2.108;2023-04-15T08:12:56;100906.91;;;6.59;100.00
28935;BME280;16044;52.726;-2.108;2023-04-15T08:15:23;100906.91;;;6.78;100.00
28935;BME280;16044;52.726;-2.108;2023-04-15T08:17:51;100908.75;;;7.07;100.00
28935;BME280;16044;52.726;-2.108;2023-04-15T08:20:18;100900.75;;;7.35;100.00
28935;BME280;16044;52.726;-2.108;2023-04-15T08:22:46;100910.19;;;7.58;100.00
28935;BME280;16044;52.726;-2.108;2023-04-15T08:25:17;100908.03;;;7.72;100.00
28935;BME280;16044;52.726;-2.108;2023-04-15T08:27:45;100917.44;;;7.95;100.00
28935;BME280;16044;52.726;-2.108;2023-04-15T08:30:12;100909.34;;;8.23;100.00
28935;BME280;16044;52.726;-2.108;2023-04-15T08:32:41;100916.69;;;8.58;100.00
28935;BME280;16044;52.726;-2.108;2023-04-15T08:35:12;100912.72;;;9.07;100.00
28935;BME280;16044;52.726;-2.108;2023-04-15T08:37:39;100927.81;;;9.35;99.67
28935;BME280;16044;52.726;-2.108;2023-04-15T08:40:07;100917.91;;;9.70;98.81
28935;BME280;16044;52.726;-2.108;2023-04-15T08:42:44;100929.69;;;9.95;97.02
28935;BME280;16044;52.726;-2.108;2023-04-15T08:45:15;100929.41;;;10.07;95.03
28935;BME280;16044;52.726;-2.108;2023-04-15T08:47:44;100932.09;;;10.33;93.47
28935;BME280;16044;52.726;-2.108;2023-04-15T08:50:13;100935.38;;;10.53;92.19
28935;BME280;16044;52.726;-2.108;2023-04-15T08:52:41;100942.88;;;10.76;90.19
28935;BME280;16044;52.726;-2.108;2023-04-15T08:55:08;100942.56;;;10.95;90.52
28935;BME280;16044;52.726;-2.108;2023-04-15T08:57:37;100949.34;;;10.99;90.63
28935;BME280;16044;52.726;-2.108;2023-04-15T09:00:05;100950.03;;;11.01;90.21
28935;BME280;16044;52.726;-2.108;2023-04-15T09:02:35;100952.38;;;10.80;89.03
28935;BME280;16044;52.726;-2.108;2023-04-15T09:05:02;100955.09;;;10.96;89.77
28935;BME280;16044;52.726;-2.108;2023-04-15T09:07:33;100961.19;;;10.82;87.57
28935;BME280;16044;52.726;-2.108;2023-04-15T09:10:03;100970.25;;;10.56;87.15
28935;BME280;16044;52.726;-2.108;2023-04-15T09:12:36;100971.44;;;10.53;86.46
28935;BME280;16044;52.726;-2.108;2023-04-15T09:15:03;100973.56;;;10.33;85.45
28935;BME280;16044;52.726;-2.108;2023-04-15T09:17:32;100976.88;;;10.19;86.77
28935;BME280;16044;52.726;-2.108;2023-04-15T09:20:11;100974.34;;;10.18;88.13
28935;BME280;16044;52.726;-2.108;2023-04-15T09:22:41;100985.69;;;10.21;89.91
28935;BME280;16044;52.726;-2.108;2023-04-15T09:28:00;100982.47;;;10.60;90.08
28935;BME280;16044;52.726;-2.108;2023-04-15T09:30:28;100991.53;;;10.85;88.85
28935;BME280;16044;52.726;-2.108;2023-04-15T09:32:57;100984.09;;;10.96;85.26
28935;BME280;16044;52.726;-2.108;2023-04-15T09:35:25;100990.34;;;10.96;85.02
28935;BME280;16044;52.726;-2.108;2023-04-15T09:38:03;100993.25;;;11.03;85.01
28935;BME280;16044;52.726;-2.108;2023-04-15T09:40:41;100999.19;;;11.06;83.90
28935;BME280;16044;52.726;-2.108;2023-04-15T09:43:09;100995.47;;;11.16;82.87
28935;BME280;16044;52.726;-2.108;2023-04-15T09:45:46;101001.44;;;11.19;82.38
28935;BME280;16044;52.726;-2.108;2023-04-15T09:48:19;101004.66;;;11.23;81.77
28935;BME280;16044;52.726;-2.108;2023-04-15T09:50:52;101005.31;;;11.17;82.02
28935;BME280;16044;52.726;-2.108;2023-04-15T09:53:21;101013.28;;;11.10;80.94
28935;BME280;16044;52.726;-2.108;2023-04-15T09:55:55;101019.03;;;11.07;80.10
28935;BME280;16044;52.726;-2.108;2023-04-15T09:58:28;101020.19;;;10.96;78.25
28935;BME280;16044;52.726;-2.108;2023-04-15T10:00:58;101022.56;;;10.99;78.73
28935;BME280;16044;52.726;-2.108;2023-04-15T10:03:29;101022.75;;;10.98;79.33
28935;BME280;16044;52.726;-2.108;2023-04-15T10:06:02;101025.28;;;10.99;79.18
28935;BME280;16044;52.726;-2.108;2023-04-15T10:08:33;101034.44;;;10.98;79.08
28935;BME280;16044;52.726;-2.108;2023-04-15T10:11:01;101023.63;;;11.15;80.01
28935;BME280;16044;52.726;-2.108;2023-04-15T10:13:31;101033.16;;;11.27;80.07
28935;BME280;16044;52.726;-2.108;2023-04-15T10:16:09;101030.44;;;11.35;78.30
28935;BME280;16044;52.726;-2.108;2023-04-15T10:18:42;101037.38;;;11.38;78.36
28935;BME280;16044;52.726;-2.108;2023-04-15T10:21:11;101038.06;;;11.48;79.49
28935;BME280;16044;52.726;-2.108;2023-04-15T10:23:44;101042.66;;;11.56;78.76
28935;BME280;16044;52.726;-2.108;2023-04-15T10:26:13;101047.75;;;11.59;78.76
28935;BME280;16044;52.726;-2.108;2023-04-15T10:28:43;101050.09;;;11.70;79.35
28935;BME280;16044;52.726;-2.108;2023-04-15T10:31:13;101047.75;;;11.67;77.78
28935;BME280;16044;52.726;-2.108;2023-04-15T10:33:41;101050.78;;;11.64;78.85
28935;BME280;16044;52.726;-2.108;2023-04-15T10:36:10;101057.91;;;11.73;78.24
28935;BME280;16044;52.726;-2.108;2023-04-15T10:38:43;101064.38;;;11.72;77.60
28935;BME280;16044;52.726;-2.108;2023-04-15T10:44:03;101068.44;;;11.68;76.20
28935;BME280;16044;52.726;-2.108;2023-04-15T10:46:39;101068.78;;;11.73;77.54
28935;BME280;16044;52.726;-2.108;2023-04-15T10:49:16;101067.09;;;11.72;78.30
28935;BME280;16044;52.726;-2.108;2023-04-15T10:51:56;101075.91;;;11.82;78.06
28935;BME280;16044;52.726;-2.108;2023-04-15T10:57:05;101076.09;;;11.89;77.20
28935;BME280;16044;52.726;-2.108;2023-04-15T10:59:58;101073.53;;;11.87;75.77
28935;BME280;16044;52.726;-2.108;2023-04-15T11:05:22;101090.50;;;12.06;76.37
28935;BME280;16044;52.726;-2.108;2023-04-15T11:08:10;101090.84;;;12.11;74.01
28935;BME280;16044;52.726;-2.108;2023-04-15T11:15:45;101101.38;;;12.31;72.94
28935;BME280;16044;52.726;-2.108;2023-04-15T11:18:21;101100.00;;;12.26;72.30
28935;BME280;16044;52.726;-2.108;2023-04-15T11:20:51;101101.38;;;12.31;73.61
28935;BME280;16044;52.726;-2.108;2023-04-15T11:23:41;101099.63;;;12.38;72.23
28935;BME280;16044;52.726;-2.108;2023-04-15T11:26:14;101095.06;;;12.38;70.86
28935;BME280;16044;52.726;-2.108;2023-04-15T11:28:43;101096.72;;;12.47;71.68
28935;BME280;16044;52.726;-2.108;2023-04-15T11:31:16;101090.06;;;12.66;72.79
28935;BME280;16044;52.726;-2.108;2023-04-15T11:33:56;101096.63;;;12.80;72.70
28935;BME280;16044;52.726;-2.108;2023-04-15T11:36:29;101093.34;;;12.85;70.44
28935;BME280;16044;52.726;-2.108;2023-04-15T11:38:58;101087.28;;;12.75;67.68
28935;BME280;16044;52.726;-2.108;2023-04-15T11:41:25;101091.78;;;12.59;67.62
28935;BME280;16044;52.726;-2.108;2023-04-15T11:43:53;101095.00;;;12.63;68.91
28935;BME280;16044;52.726;-2.108;2023-04-15T11:46:20;101096.16;;;12.60;70.10
28935;BME280;16044;52.726;-2.108;2023-04-15T11:48:48;101097.50;;;12.64;70.75
28935;BME280;16044;52.726;-2.108;2023-04-15T11:51:16;101107.06;;;12.60;70.46
28935;BME280;16044;52.726;-2.108;2023-04-15T11:53:48;101108.25;;;12.58;70.23
28935;BME280;16044;52.726;-2.108;2023-04-15T11:56:17;101109.47;;;12.55;70.18
28935;BME280;16044;52.726;-2.108;2023-04-15T11:58:55;101109.09;;;12.58;71.71
28935;BME280;16044;52.726;-2.108;2023-04-15T12:01:40;101110.09;;;12.65;72.55
28935;BME280;16044;52.726;-2.108;2023-04-15T12:04:12;101114.53;;;12.66;72.88
28935;BME280;16044;52.726;-2.108;2023-04-15T12:06:41;101112.06;;;12.88;72.82
28935;BME280;16044;52.726;-2.108;2023-04-15T12:09:10;101120.34;;;12.95;71.16
28935;BME280;16044;52.726;-2.108;2023-04-15T12:14:25;101125.28;;;12.99;71.71
28935;BME280;16044;52.726;-2.108;2023-04-15T12:17:05;101125.09;;;13.01;70.73
28935;BME280;16044;52.726;-2.108;2023-04-15T12:19:40;101122.91;;;12.96;71.68
28935;BME280;16044;52.726;-2.108;2023-04-15T12:22:10;101133.78;;;12.96;69.87
28935;BME280;16044;52.726;-2.108;2023-04-15T12:24:41;101140.09;;;12.97;70.03
28935;BME280;16044;52.726;-2.108;2023-04-15T12:27:15;101131.72;;;12.98;68.49
28935;BME280;16044;52.726;-2.108;2023-04-15T12:29:42;101138.75;;;12.84;68.95
28935;BME280;16044;52.726;-2.108;2023-04-15T12:34:52;101142.63;;;12.98;68.40
28935;BME280;16044;52.726;-2.108;2023-04-15T12:37:20;101135.44;;;13.14;70.30
28935;BME280;16044;52.726;-2.108;2023-04-15T12:39:48;101141.13;;;13.35;70.21
28935;BME280;16044;52.726;-2.108;2023-04-15T12:42:16;101145.81;;;13.50;67.90
28935;BME280;16044;52.726;-2.108;2023-04-15T12:44:44;101144.16;;;13.63;68.60
28935;BME280;16044;52.726;-2.108;2023-04-15T12:47:12;101146.66;;;13.73;66.87
28935;BME280;16044;52.726;-2.108;2023-04-15T12:49:39;101155.16;;;13.78;66.59
28935;BME280;16044;52.726;-2.108;2023-04-15T12:52:07;101153.56;;;13.84;66.95
28935;BME280;16044;52.726;-2.108;2023-04-15T12:54:34;101150.94;;;13.91;66.72
28935;BME280;16044;52.726;-2.108;2023-04-15T12:57:02;101155.00;;;13.95;66.20
28935;BME280;16044;52.726;-2.108;2023-04-15T12:59:33;101150.78;;;13.92;64.79
28935;BME280;16044;52.726;-2.108;2023-04-15T13:02:01;101158.38;;;13.97;64.13
28935;BME280;16044;52.726;-2.108;2023-04-15T13:04:30;101157.69;;;14.03;63.75
28935;BME280;16044;52.726;-2.108;2023-04-15T13:06:57;101156.94;;;14.09;63.49
28935;BME280;16044;52.726;-2.108;2023-04-15T13:09:24;101154.28;;;14.01;61.39